Time;durP1;ratioP1;P1;durP2;ratioP2;P2;SDS_P1;SDS_P2;PMS_P1;PMS_P2;Temp;Humidity;BMP_temperature;BMP_pressure;BME280_temperature;BME280_humidity;BME280_pressure;Samples;Min_cycle;Max_cycle;Signal;HPM_P1;HPM_P2
2021/07/02 00:00:12;;;;;;;5.78;0.90;;;;;;;29.65;38.29;99370.53;4516502;31;78735;-77
2021/07/02 00:02:53;;;;;;;3.10;0.90;;;;;;;29.65;38.46;99368.63;4525196;31;77682;-79
2021/07/02 00:05:36;;;;;;;1.75;0.77;;;;;;;29.28;38.96;99371.66;4511694;31;75132;-70
2021/07/02 00:08:18;;;;;;;6.50;1.08;;;;;;;29.14;39.25;99376.91;4525014;31;79364;-75
2021/07/02 00:11:00;;;;;;;3.95;1.00;;;;;;;29.64;38.54;99368.91;4511751;31;83800;-76
2021/07/02 00:13:42;;;;;;;6.43;1.05;;;;;;;29.65;38.46;99370.53;4525166;31;71687;-75
2021/07/02 00:16:22;;;;;;;2.08;0.62;;;;;;;29.62;38.49;99363.69;4525179;31;80029;-77
2021/07/02 00:19:05;;;;;;;6.15;1.08;;;;;;;29.62;38.28;99371.94;4525009;31;77535;-77
2021/07/02 00:21:46;;;;;;;5.50;1.00;;;;;;;29.62;38.09;99371.94;4519178;31;74997;-75
2021/07/02 00:24:28;;;;;;;2.25;0.70;;;;;;;29.61;38.35;99367.56;4518964;31;81892;-72
2021/07/02 00:27:09;;;;;;;4.12;1.15;;;;;;;29.25;38.77;99377.72;4508416;31;76792;-70
2021/07/02 00:29:50;;;;;;;10.35;1.27;;;;;;;29.08;39.24;99372.50;4525267;31;78667;-77
2021/07/02 00:32:30;;;;;;;4.18;0.98;;;;;;;29.58;38.02;99367.28;4524701;31;87603;-76
2021/07/02 00:35:14;;;;;;;5.57;0.93;;;;;;;29.21;38.55;99369.22;4525161;31;77802;-75
2021/07/02 00:37:55;;;;;;;3.55;0.73;;;;;;;29.56;38.03;99375.78;4525013;31;81997;-74
2021/07/02 00:40:36;;;;;;;3.60;1.10;;;;;;;29.57;38.17;99376.63;4525116;31;82102;-76
2021/07/02 00:43:17;;;;;;;4.97;1.00;;;;;;;29.19;38.60;99368.69;4525309;31;76157;-72
2021/07/02 00:46:00;;;;;;;3.12;0.90;;;;;;;29.55;38.18;99370.56;4525059;31;77537;-74
2021/07/02 00:48:41;;;;;;;3.55;1.00;;;;;;;29.56;38.09;99366.72;4523833;31;124109;-76
2021/07/02 00:51:22;;;;;;;1.42;0.82;;;;;;;29.19;38.58;99360.44;4525373;31;76757;-76
2021/07/02 00:54:05;;;;;;;2.05;0.65;;;;;;;29.55;38.14;99365.91;4525100;31;78439;-76
2021/07/02 00:56:45;;;;;;;4.35;1.00;;;;;;;29.20;38.58;99362.06;4518221;31;74341;-79
2021/07/02 00:59:29;;;;;;;4.65;0.77;;;;;;;29.54;37.99;99363.41;4525182;31;76521;-78
2021/07/02 01:02:09;;;;;;;3.17;0.88;;;;;;;29.54;38.07;99368.91;4524950;31;80867;-79
2021/07/02 01:04:51;;;;;;;2.80;0.90;;;;;;;29.18;38.47;99364.25;4525452;31;77221;-75
2021/07/02 01:07:35;;;;;;;2.92;0.80;;;;;;;29.53;37.99;99373.56;4524579;31;100348;-77
2021/07/02 01:10:18;;;;;;;2.83;0.88;;;;;;;29.17;38.32;99381.84;4511768;31;75373;-78
2021/07/02 01:13:00;;;;;;;4.12;1.08;;;;;;;29.51;38.06;99369.44;4525274;31;78230;-78
2021/07/02 01:15:41;;;;;;;2.47;0.70;;;;;;;29.52;38.01;99371.09;4525209;31;77545;-79
2021/07/02 01:18:23;;;;;;;2.83;0.70;;;;;;;29.16;38.55;99371.97;4525426;31;77395;-78
2021/07/02 01:21:04;;;;;;;3.22;0.90;;;;;;;29.51;37.76;99361.19;4525198;31;75489;-78
2021/07/02 01:23:45;;;;;;;1.58;0.70;;;;;;;29.52;37.68;99369.19;4525299;31;80498;-78
2021/07/02 01:26:29;;;;;;;3.17;0.80;;;;;;;29.15;38.09;99367.56;4525360;31;78681;-78
2021/07/02 01:29:12;;;;;;;4.65;1.00;;;;;;;29.52;37.93;99365.59;4525201;31;81888;-76
2021/07/02 01:31:52;;;;;;;2.12;0.70;;;;;;;29.53;37.57;99368.09;4337136;31;6100289;-78
2021/07/02 01:34:35;;;;;;;1.00;0.50;;;;;;;29.52;37.85;99357.69;4524985;31;78904;-77
2021/07/02 01:37:16;;;;;;;3.78;0.80;;;;;;;29.17;38.29;99357.12;4525395;31;77388;-77
2021/07/02 01:39:56;;;;;;;1.20;0.60;;;;;;;29.01;38.52;99360.16;4292250;31;7042950;-78
2021/07/02 01:42:37;;;;;;;1.05;0.57;;;;;;;29.53;37.70;99361.75;4525202;31;83426;-79
2021/07/02 01:45:19;;;;;;;2.40;0.90;;;;;;;29.15;38.15;99345.59;4525114;31;78273;-78
2021/07/02 01:48:00;;;;;;;1.52;0.60;;;;;;;29.50;37.56;99352.13;4327361;31;6417423;-77
2021/07/02 01:50:42;;;;;;;4.75;0.90;;;;;;;29.52;37.54;99343.59;4521537;31;197694;-77
2021/07/02 01:53:25;;;;;;;1.98;0.60;;;;;;;29.52;37.47;99349.09;4525311;31;77027;-78
2021/07/02 01:56:05;;;;;;;3.28;0.70;;;;;;;29.51;37.53;99340.03;4494119;31;1083016;-78
2021/07/02 01:58:46;;;;;;;0.93;0.50;;;;;;;29.17;37.89;99345.31;4525203;31;77495;-78
2021/07/02 02:01:29;;;;;;;4.07;0.70;;;;;;;29.03;38.26;99344.22;4494205;31;1080747;-79
2021/07/02 02:04:09;;;;;;;2.37;0.60;;;;;;;29.51;37.84;99345.53;4525077;31;81454;-78
2021/07/02 02:06:52;;;;;;;1.50;0.52;;;;;;;29.16;38.28;99341.75;4525074;31;81652;-71
2021/07/02 02:09:33;;;;;;;1.70;0.60;;;;;;;29.03;38.78;99347.78;4511448;31;86559;-76
2021/07/02 02:12:15;;;;;;;3.87;0.85;;;;;;;29.52;38.05;99347.19;4524949;31;82818;-78
2021/07/02 02:14:58;;;;;;;3.60;0.70;;;;;;;29.16;38.50;99346.41;4525289;31;75595;-79
2021/07/02 02:17:38;;;;;;;2.05;0.57;;;;;;;29.51;37.71;99350.22;4525176;31;81758;-79
2021/07/02 02:20:19;;;;;;;1.05;0.47;;;;;;;29.15;38.19;99344.78;4525322;31;77560;-78
2021/07/02 02:23:03;;;;;;;0.75;0.65;;;;;;;29.48;38.02;99348.84;4525134;31;74897;-79
2021/07/02 02:25:45;;;;;;;3.00;0.60;;;;;;;29.48;37.81;99341.44;4525343;31;74188;-77
2021/07/02 02:28:26;;;;;;;4.72;0.60;;;;;;;29.13;38.33;99342.28;4525204;31;81172;-78
2021/07/02 02:31:09;;;;;;;4.18;0.85;;;;;;;29.46;37.58;99348.28;4525177;31;77560;-80
2021/07/02 02:33:51;;;;;;;0.85;0.60;;;;;;;29.46;37.95;99342.78;4525133;31;80930;-79
2021/07/02 02:36:32;;;;;;;0.55;0.37;;;;;;;29.11;38.07;99344.50;4525411;31;78295;-78
2021/07/02 02:39:15;;;;;;;2.50;0.80;;;;;;;29.45;38.16;99347.47;4525274;31;76580;-78
2021/07/02 02:41:57;;;;;;;1.40;0.52;;;;;;;29.10;38.38;99344.75;4525248;31;76952;-81
2021/07/02 02:44:40;;;;;;;0.88;0.60;;;;;;;29.45;37.51;99352.16;4525208;31;76301;-76
2021/07/02 02:47:22;;;;;;;2.37;0.60;;;;;;;29.09;38.02;99343.94;4525100;31;76511;-76
2021/07/02 02:50:04;;;;;;;1.85;0.62;;;;;;;29.43;38.05;99346.94;4525209;31;82354;-80
2021/07/02 02:52:45;;;;;;;5.15;0.68;;;;;;;29.46;37.72;99351.03;4523588;31;127790;-78
2021/07/02 02:55:26;;;;;;;2.45;0.75;;;;;;;29.10;38.17;99345.59;4525380;31;78318;-78
2021/07/02 02:58:08;;;;;;;1.92;0.68;;;;;;;28.94;38.50;99346.66;4524994;31;86504;-76
2021/07/02 03:00:49;;;;;;;0.75;0.50;;;;;;;29.45;37.49;99352.16;4525225;31;79655;-77
2021/07/02 03:03:30;;;;;;;2.45;0.88;;;;;;;29.08;37.83;99347.78;4525309;31;81649;-77
2021/07/02 03:06:27;;;;;;;2.90;0.70;;;;;;;28.93;38.51;99354.06;4525212;31;75605;-79
2021/07/02 03:09:07;;;;;;;5.45;0.90;;;;;;;29.41;37.30;99351.06;4477942;32;90066;-77
2021/07/02 03:11:51;;;;;;;1.65;0.90;;;;;;;29.42;37.27;99345.25;4525186;31;79204;-77
2021/07/02 03:14:31;;;;;;;0.95;0.70;;;;;;;29.06;37.65;99343.69;4525504;31;76922;-77
2021/07/02 03:17:14;;;;;;;4.70;0.90;;;;;;;29.39;37.49;99347.78;4525216;31;76716;-75
2021/07/02 03:19:57;;;;;;;1.00;0.70;;;;;;;29.39;37.48;99348.59;4525095;31;77343;-77
2021/07/02 03:22:37;;;;;;;1.92;0.70;;;;;;;29.37;37.33;99350.78;4525152;31;82702;-77
2021/07/02 03:25:20;;;;;;;1.50;0.80;;;;;;;29.36;37.10;99351.88;4525108;31;78340;-77
2021/07/02 03:28:00;;;;;;;1.33;0.82;;;;;;;29.36;37.21;99345.56;4525410;31;79274;-78
2021/07/02 03:30:43;;;;;;;2.90;0.80;;;;;;;29.36;37.20;99349.12;4525156;31;78652;-77
2021/07/02 03:33:25;;;;;;;2.90;0.70;;;;;;;28.98;37.57;99354.09;4525259;31;78307;-79
2021/07/02 03:36:08;;;;;;;4.65;1.10;;;;;;;29.33;37.25;99346.97;4525266;31;77656;-77
2021/07/02 03:38:51;;;;;;;1.73;0.80;;;;;;;29.34;37.35;99345.03;4525128;31;77938;-76
2021/07/02 03:41:32;;;;;;;4.57;1.17;;;;;;;28.99;37.89;99346.69;4508989;31;76301;-72
2021/07/02 03:44:14;;;;;;;5.05;0.82;;;;;;;29.32;37.55;99352.72;4507632;31;84996;-76
2021/07/02 03:46:57;;;;;;;3.12;0.82;;;;;;;28.96;38.15;99353.56;4518786;31;78084;-77
2021/07/02 03:49:39;;;;;;;3.70;0.88;;;;;;;29.31;37.54;99345.56;4525102;31;77915;-76
2021/07/02 03:52:22;;;;;;;9.77;1.70;;;;;;;29.33;37.01;99338.72;4525156;31;80555;-78
2021/07/02 03:55:04;;;;;;;2.80;1.00;;;;;;;28.97;37.50;99352.47;4523817;31;126349;-76
2021/07/02 03:57:47;;;;;;;2.90;0.82;;;;;;;29.32;37.37;99349.97;4524805;31;84145;-76
2021/07/02 04:00:29;;;;;;;4.37;1.05;;;;;;;28.96;37.99;99355.50;4525027;31;78864;-78
2021/07/02 04:03:14;;;;;;;3.17;0.80;;;;;;;29.30;37.28;99352.19;4524819;31;84162;-76
2021/07/02 04:05:54;;;;;;;4.45;1.00;;;;;;;28.95;37.61;99362.06;4525231;31;77786;-76
2021/07/02 04:08:36;;;;;;;4.47;1.10;;;;;;;29.30;37.48;99355.75;4525329;31;78337;-76
2021/07/02 04:11:15;;;;;;;2.65;1.10;;;;;;;28.96;37.93;99350.00;4525082;31;79426;-75
2021/07/02 04:13:58;;;;;;;3.50;0.93;;;;;;;28.82;38.34;99357.94;4525171;31;77545;-75
2021/07/02 04:16:41;;;;;;;8.48;1.20;;;;;;;29.29;37.36;99347.78;4525005;31;78386;-76
2021/07/02 04:19:23;;;;;;;3.95;1.10;;;;;;;29.29;37.32;99354.09;4524351;31;80110;-77
2021/07/02 04:22:06;;;;;;;1.95;1.08;;;;;;;29.30;37.39;99364.00;4524950;31;83760;-76
2021/07/02 04:24:47;;;;;;;3.60;1.10;;;;;;;29.31;37.39;99362.06;4525044;31;79869;-77
2021/07/02 04:27:29;;;;;;;4.57;1.35;;;;;;;28.95;37.74;99365.62;4523607;31;88110;-75
2021/07/02 04:30:13;;;;;;;2.92;1.08;;;;;;;28.81;38.07;99366.41;4525129;31;78528;-77
2021/07/02 04:32:53;;;;;;;2.65;1.10;;;;;;;29.29;37.63;99367.03;4525138;31;83153;-78
2021/07/02 04:35:36;;;;;;;2.40;1.20;;;;;;;28.94;37.94;99368.63;4523737;31;83311;-78
2021/07/02 04:38:17;;;;;;;3.50;1.17;;;;;;;29.27;37.27;99356.28;4525007;31;81854;-77
2021/07/02 04:40:57;;;;;;;5.37;1.48;;;;;;;28.92;37.72;99365.34;4525030;31;78097;-78
2021/07/02 04:43:40;;;;;;;2.75;1.23;;;;;;;29.27;37.49;99361.78;4525563;31;73471;-77
2021/07/02 04:46:21;;;;;;;2.33;1.05;;;;;;;29.28;37.67;99363.41;4524918;31;84133;-79
2021/07/02 04:49:03;;;;;;;2.17;1.10;;;;;;;28.91;38.12;99369.16;4525144;31;80311;-75
2021/07/02 04:51:44;;;;;;;5.85;1.27;;;;;;;29.26;37.54;99360.13;4525534;31;73518;-77
2021/07/02 04:54:24;;;;;;;2.42;1.30;;;;;;;29.26;37.30;99356.56;4525330;31;77045;-76
2021/07/02 04:57:06;;;;;;;3.10;1.23;;;;;;;28.91;37.67;99358.19;4524042;31;124579;-77
2021/07/02 04:59:50;;;;;;;4.65;1.17;;;;;;;29.25;37.45;99369.50;4525008;31;83148;-77
2021/07/02 05:02:31;;;;;;;4.93;1.65;;;;;;;28.90;38.07;99370.28;4525166;31;83253;-79
2021/07/02 05:05:14;;;;;;;4.37;1.27;;;;;;;29.25;37.32;99371.41;4525336;31;74703;-78
2021/07/02 05:07:54;;;;;;;2.65;0.90;;;;;;;29.27;37.77;99371.94;4523497;31;82164;-78
2021/07/02 05:10:37;;;;;;;5.18;1.27;;;;;;;28.90;38.32;99382.06;4525251;31;77464;-78
2021/07/02 05:13:18;;;;;;;2.80;1.15;;;;;;;29.25;37.56;99383.22;4525340;31;78258;-78
2021/07/02 05:16:00;;;;;;;4.97;1.25;;;;;;;28.89;38.11;99388.66;4524940;31;80018;-77
2021/07/02 05:18:41;;;;;;;2.50;1.30;;;;;;;29.26;37.90;99382.13;4525166;31;80089;-78
2021/07/02 05:21:21;;;;;;;6.62;1.40;;;;;;;29.25;37.47;99385.97;4521833;31;78394;-83
2021/07/02 05:24:02;;;;;;;5.40;1.50;;;;;;;29.25;37.38;99385.16;4518056;31;80881;-80
2021/07/02 05:26:45;;;;;;;8.27;1.48;;;;;;;29.25;37.39;99387.91;4518140;31;75656;-80
2021/07/02 05:29:25;;;;;;;8.27;1.37;;;;;;;29.27;37.45;99388.44;4520474;31;80202;-83
2021/07/02 05:32:08;;;;;;;6.20;1.40;;;;;;;28.90;37.89;99387.56;4525198;31;74761;-83
2021/07/02 05:34:51;;;;;;;6.10;1.30;;;;;;;29.27;37.48;99385.69;4524973;31;80892;-72
2021/07/02 05:37:33;;;;;;;4.35;1.27;;;;;;;29.27;37.46;99386.50;4525085;31;79261;-81
2021/07/02 05:40:15;;;;;;;6.20;1.73;;;;;;;28.92;37.82;99392.81;4525362;31;80214;-82
2021/07/02 05:42:56;;;;;;;4.85;1.80;;;;;;;29.28;37.56;99390.09;4521050;31;83473;-78
2021/07/02 05:45:40;;;;;;;3.25;1.40;;;;;;;28.91;37.89;99393.88;4514444;31;84994;-76
2021/07/02 05:48:23;;;;;;;4.55;1.95;;;;;;;29.27;37.47;99396.69;4505315;31;79558;-76
2021/07/02 05:51:03;;;;;;;4.72;1.23;;;;;;;29.28;37.35;99401.06;4526601;31;28611;-76
2021/07/02 05:53:44;;;;;;;3.58;1.20;;;;;;;28.93;37.73;99399.94;4524828;31;88561;-77
2021/07/02 05:56:28;;;;;;;4.37;1.65;;;;;;;29.29;37.34;99402.75;4525243;31;81587;-76
2021/07/02 05:59:08;;;;;;;4.43;1.30;;;;;;;29.28;37.46;99401.91;4523549;31;135061;-79
2021/07/02 06:01:51;;;;;;;4.00;1.12;;;;;;;29.30;37.39;99410.72;4525146;31;79436;-77
2021/07/02 06:04:31;;;;;;;4.07;1.30;;;;;;;29.30;37.51;99412.63;4524839;31;86407;-76
2021/07/02 06:07:12;;;;;;;2.70;1.02;;;;;;;29.30;37.44;99412.63;4525174;31;77606;-78
2021/07/02 06:09:55;;;;;;;5.50;1.48;;;;;;;29.30;37.43;99418.12;4525037;31;83277;-79
2021/07/02 06:12:39;;;;;;;3.03;1.30;;;;;;;29.30;37.53;99416.19;4524852;31;87897;-76
2021/07/02 06:15:22;;;;;;;6.15;1.50;;;;;;;29.30;37.46;99418.12;4523853;31;82221;-78
2021/07/02 06:18:07;;;;;;;8.43;1.58;;;;;;;29.30;37.35;99416.19;4525647;31;74458;-79
2021/07/02 06:20:51;;;;;;;6.45;1.35;;;;;;;29.31;37.42;99439.00;4503257;31;775822;-77
2021/07/02 06:23:35;;;;;;;5.12;1.60;;;;;;;29.30;37.37;99429.13;4525515;31;75418;-81
2021/07/02 06:26:17;;;;;;;4.00;1.30;;;;;;;29.29;37.23;99427.47;4502935;31;777185;-80
2021/07/02 06:28:59;;;;;;;7.15;1.70;;;;;;;29.29;37.43;99425.56;4524631;31;95772;-79
2021/07/02 06:31:42;;;;;;;5.07;1.42;;;;;;;28.93;37.75;99430.97;4524704;31;87588;-79
2021/07/02 06:34:23;;;;;;;3.87;1.20;;;;;;;28.80;38.20;99434.25;4525276;31;82444;-74
2021/07/02 06:37:03;;;;;;;4.00;1.02;;;;;;;29.27;37.45;99446.97;4525116;31;82974;-79
2021/07/02 06:39:46;;;;;;;4.90;1.40;;;;;;;29.31;37.66;99455.50;4525183;31;79896;-78
2021/07/02 06:42:26;;;;;;;6.00;1.30;;;;;;;29.29;37.41;99450.28;4525201;31;85348;-75
2021/07/02 06:45:11;;;;;;;7.93;1.60;;;;;;;29.31;37.52;99453.56;4523411;31;88897;-78
2021/07/02 06:47:58;;;;;;;4.85;1.20;;;;;;;29.31;37.37;99456.31;4525056;31;91204;-77
2021/07/02 06:50:42;;;;;;;7.07;1.40;;;;;;;29.31;37.42;99461.00;4502928;31;780673;-82
2021/07/02 06:53:21;;;;;;;4.78;1.50;;;;;;;28.94;37.85;99457.34;4525035;31;85931;-81
2021/07/02 06:56:04;;;;;;;4.65;1.83;;;;;;;29.30;37.56;99460.16;4525374;31;78653;-78
2021/07/02 06:58:46;;;;;;;6.03;1.65;;;;;;;29.31;37.64;99467.31;4524886;31;85371;-78
2021/07/02 07:01:26;;;;;;;5.22;1.42;;;;;;;29.29;37.69;99466.78;4522617;31;130207;-69
2021/07/02 07:04:11;;;;;;;5.12;1.52;;;;;;;28.95;38.08;99470.00;4521900;31;79309;-73
2021/07/02 07:06:51;;;;;;;7.18;1.80;;;;;;;29.30;37.71;99473.09;4525195;31;85169;-78
2021/07/02 07:09:34;;;;;;;3.75;1.45;;;;;;;29.31;37.58;99475.56;4525005;31;81523;-80
2021/07/02 07:12:16;;;;;;;3.42;1.25;;;;;;;29.33;37.52;99465.13;4524475;31;103013;-80
2021/07/02 07:14:58;;;;;;;5.62;1.48;;;;;;;28.97;38.06;99472.50;4525344;31;79325;-74
2021/07/02 07:17:40;;;;;;;9.02;1.67;;;;;;;29.33;37.75;99469.78;4525155;31;78638;-76
2021/07/02 07:20:22;;;;;;;8.85;1.75;;;;;;;28.97;38.16;99473.31;4525202;31;78673;-76
2021/07/02 07:23:03;;;;;;;5.25;1.60;;;;;;;29.35;37.69;99451.94;4525062;31;80353;-76
2021/07/02 07:25:45;;;;;;;5.43;1.58;;;;;;;29.36;37.67;99455.50;4525074;31;80991;-76
2021/07/02 07:28:27;;;;;;;7.70;1.95;;;;;;;29.38;37.69;99464.31;4525125;31;79485;-76
2021/07/02 07:31:10;;;;;;;11.65;2.10;;;;;;;29.02;38.10;99458.75;4525068;31;82280;-76
2021/07/02 07:33:53;;;;;;;4.78;1.55;;;;;;;28.87;38.46;99453.22;4517572;31;333832;-75
2021/07/02 07:36:36;;;;;;;7.30;2.40;;;;;;;29.36;37.70;99458.25;4523907;31;81100;-76
2021/07/02 07:39:17;;;;;;;7.50;1.70;;;;;;;29.02;38.15;99457.94;4525138;31;79375;-73
2021/07/02 07:41:59;;;;;;;7.10;2.15;;;;;;;29.37;37.63;99440.66;4525095;31;81472;-76
2021/07/02 07:44:40;;;;;;;6.55;1.55;;;;;;;29.38;37.75;99443.13;4525147;31;80938;-76
2021/07/02 07:47:21;;;;;;;4.47;1.55;;;;;;;29.02;38.09;99441.47;4525206;31;74846;-73
2021/07/02 07:50:07;;;;;;;7.60;1.70;;;;;;;29.37;37.68;99432.41;4520309;31;87159;-76
2021/07/02 07:52:58;;;;;;;6.28;1.48;;;;;;;29.00;38.17;99444.47;4512165;31;96524;-76
2021/07/02 07:55:41;;;;;;;4.72;1.50;;;;;;;28.87;38.48;99439.50;4524624;31;81043;-76
2021/07/02 07:58:24;;;;;;;8.63;1.80;;;;;;;28.85;38.52;99430.69;4511724;31;171798;-77
2021/07/02 08:01:06;;;;;;;6.35;1.75;;;;;;;29.35;37.78;99434.63;4525049;31;75637;-77
2021/07/02 08:03:46;;;;;;;7.70;1.85;;;;;;;29.37;37.67;99437.91;4508690;31;129569;-79
2021/07/02 08:06:29;;;;;;;4.68;1.52;;;;;;;29.01;38.20;99448.88;4525075;31;82746;-79
2021/07/02 08:09:13;;;;;;;4.70;1.62;;;;;;;29.35;37.65;99449.19;4525116;31;80965;-76
2021/07/02 08:11:52;;;;;;;5.43;1.48;;;;;;;29.01;38.22;99446.13;4525202;31;85322;-78
2021/07/02 08:14:34;;;;;;;4.43;1.45;;;;;;;29.35;37.78;99454.66;4512727;31;77068;-71
2021/07/02 08:17:16;;;;;;;3.62;1.20;;;;;;;29.36;37.58;99450.00;4525086;31;84423;-78
2021/07/02 08:19:57;;;;;;;3.90;1.50;;;;;;;29.38;37.81;99450.56;4525161;31;79855;-76
2021/07/02 08:22:40;;;;;;;6.60;1.52;;;;;;;29.38;37.81;99461.56;4524921;31;88343;-78
2021/07/02 08:25:22;;;;;;;6.55;1.70;;;;;;;29.39;37.73;99460.44;4525036;31;79788;-77
2021/07/02 08:30:36;;;;;;;4.40;1.60;;;;;;;28.80;38.65;99460.87;4511661;31;33567;-78
2021/07/02 08:33:19;;;;;;;8.60;1.60;;;;;;;29.36;37.93;99461.00;4525194;31;79538;-76
2021/07/02 08:36:02;;;;;;;7.80;1.85;;;;;;;29.37;37.86;99459.87;4525117;31;83001;-78
2021/07/02 08:38:41;;;;;;;3.20;1.30;;;;;;;29.03;38.28;99460.41;4525452;31;78585;-78
2021/07/02 08:41:23;;;;;;;3.17;1.50;;;;;;;29.37;38.14;99463.44;4525026;31;78460;-76
2021/07/02 08:44:07;;;;;;;4.95;1.45;;;;;;;29.38;37.89;99456.06;4525107;31;78031;-78
2021/07/02 08:46:49;;;;;;;4.90;1.33;;;;;;;29.37;37.86;99457.97;4523657;31;79869;-77
2021/07/02 08:49:43;;;;;;;1.92;1.02;;;;;;;29.01;38.37;99454.38;4525341;31;78749;-77
2021/07/02 08:52:25;;;;;;;4.40;1.40;;;;;;;29.37;37.89;99459.87;4525274;31;79164;-75
2021/07/02 08:55:06;;;;;;;5.12;1.70;;;;;;;29.02;38.34;99460.69;4525375;31;78175;-73
2021/07/02 08:57:47;;;;;;;6.93;1.45;;;;;;;28.88;38.72;99460.34;4523698;31;83909;-80
2021/07/02 09:00:30;;;;;;;3.97;1.40;;;;;;;29.32;37.60;99454.38;4524874;31;86305;-76
2021/07/02 09:03:43;;;;;;;3.67;1.55;;;;;;;28.96;38.01;99451.63;4519030;31;77908;-81
2021/07/02 09:06:24;;;;;;;9.60;1.60;;;;;;;29.28;37.55;99451.34;4520370;31;235832;-78
2021/07/02 09:09:09;;;;;;;6.87;1.90;;;;;;;28.92;37.92;99459.53;4525306;31;78558;-82
2021/07/02 09:11:51;;;;;;;5.53;1.45;;;;;;;28.78;38.32;99452.91;4523354;31;77173;-78
2021/07/02 09:14:32;;;;;;;6.68;1.77;;;;;;;29.28;37.49;99447.78;4517720;31;81685;-78
2021/07/02 09:17:14;;;;;;;7.15;1.40;;;;;;;28.91;37.91;99451.56;4525468;31;77507;-79
2021/07/02 09:20:01;;;;;;;4.72;1.42;;;;;;;29.29;37.41;99450.28;4525240;31;81873;-79
2021/07/02 09:22:46;;;;;;;4.95;2.10;;;;;;;28.93;37.84;99449.38;4525327;31;83794;-79
2021/07/02 09:25:28;;;;;;;7.43;1.58;;;;;;;29.26;37.27;99448.06;4525066;31;83102;-80
2021/07/02 09:28:11;;;;;;;5.22;1.40;;;;;;;29.27;37.21;99435.97;4525471;31;74457;-79
2021/07/02 09:30:53;;;;;;;6.32;1.58;;;;;;;29.25;37.14;99436.03;4525184;31;81641;-78
2021/07/02 09:33:36;;;;;;;6.43;1.48;;;;;;;28.89;37.57;99434.53;4525068;31;83174;-79
2021/07/02 09:36:27;;;;;;;5.15;1.55;;;;;;;29.30;37.20;99432.69;4504781;31;81200;-75
2021/07/02 09:39:30;;;;;;;4.32;1.45;;;;;;;29.34;36.97;99428.28;4493639;31;76349;-82
2021/07/02 09:42:28;;;;;;;3.70;1.33;;;;;;;29.31;36.98;99439.00;4510251;31;86051;-77
2021/07/02 09:45:14;;;;;;;4.85;1.70;;;;;;;28.94;37.52;99429.03;4524973;31;83844;-80
2021/07/02 09:47:55;;;;;;;4.07;1.45;;;;;;;29.27;37.08;99432.41;4524924;31;92549;-79
2021/07/02 09:50:26;;;;;;;6.00;1.70;;;;;;;29.27;37.08;99432.41;4510750;31;34034;-79
2021/07/02 09:52:58;;;;;;;4.80;1.65;;;;;;;28.71;37.96;99425.69;4504495;31;33847;-78
2021/07/02 09:55:30;;;;;;;4.45;1.55;;;;;;;28.69;38.03;99436.13;4494827;31;34055;-79
2021/07/02 09:58:12;;;;;;;2.47;1.40;;;;;;;28.69;37.95;99435.31;4494725;31;33951;-78
2021/07/02 10:00:41;;;;;;;3.40;1.55;;;;;;;28.69;37.90;99436.13;4482304;32;33396;-77
2021/07/02 10:03:09;;;;;;;6.20;1.60;;;;;;;28.67;37.89;99432.81;4500921;31;33608;-78
2021/07/02 10:05:44;;;;;;;2.80;1.20;;;;;;;28.65;37.91;99426.78;4481761;32;32582;-79
2021/07/02 10:08:12;;;;;;;3.20;1.60;;;;;;;28.68;37.87;99423.53;4494574;32;33811;-72
2021/07/02 10:10:41;;;;;;;5.05;1.42;;;;;;;28.68;37.88;99408.97;4465101;32;33182;-81
2021/07/02 10:13:08;;;;;;;3.20;1.10;;;;;;;28.63;37.85;99415.28;4481878;32;34729;-82
2021/07/02 10:15:36;;;;;;;3.87;1.27;;;;;;;28.68;37.85;99412.53;4482077;32;34856;-77
2021/07/02 10:18:05;;;;;;;7.68;1.50;;;;;;;28.67;37.87;99421.03;4494581;32;33597;-81
2021/07/02 10:20:32;;;;;;;4.00;1.50;;;;;;;28.67;37.86;99421.84;4494709;31;34242;-79
2021/07/02 10:23:00;;;;;;;2.87;1.23;;;;;;;28.68;37.79;99408.97;4481454;32;33628;-79
2021/07/02 10:25:30;;;;;;;6.78;1.50;;;;;;;28.68;37.77;99409.78;4481469;32;34801;-83
2021/07/02 10:27:57;;;;;;;5.32;1.42;;;;;;;28.67;37.75;99401.81;4491080;31;33850;-81
2021/07/02 10:30:25;;;;;;;4.55;1.30;;;;;;;28.69;37.75;99407.88;4481578;31;34203;-79
2021/07/02 10:32:55;;;;;;;3.47;1.55;;;;;;;28.69;37.75;99408.69;4484413;32;33868;-80
2021/07/02 10:35:22;;;;;;;;;;;;;;;28.67;37.78;99402.62;4481877;32;34058;-79
2021/07/02 10:37:57;;;;;;;2.42;1.50;;;;;;;28.79;37.47;99407.88;4481328;32;33434;-79
2021/07/02 10:40:41;;;;;;;5.70;1.62;;;;;;;28.71;37.62;99400.16;4478726;32;33536;-79
2021/07/02 10:43:19;;;;;;;3.97;1.52;;;;;;;28.67;37.67;99399.87;4479618;32;33960;-80
2021/07/02 10:46:08;;;;;;;3.12;1.50;;;;;;;28.65;37.65;99406.75;4478490;32;34052;-80
2021/07/02 10:48:54;;;;;;;2.58;1.20;;;;;;;28.65;37.64;99399.34;4478607;32;33821;-81
2021/07/02 10:51:31;;;;;;;2.55;1.70;;;;;;;28.68;37.65;99398.81;4487966;32;33330;-80
2021/07/02 10:54:24;;;;;;;3.97;1.27;;;;;;;28.65;37.61;99390.28;4495555;31;33835;-79
2021/07/02 10:57:01;;;;;;;2.12;1.12;;;;;;;28.69;37.55;99388.66;4488509;31;34805;-80
2021/07/02 10:59:38;;;;;;;1.95;1.20;;;;;;;28.65;37.64;99385.63;4484692;32;33351;-79
2021/07/02 11:02:06;;;;;;;6.60;1.35;;;;;;;28.66;37.53;99391.94;4483665;32;35222;-77
2021/07/02 11:04:42;;;;;;;3.42;1.27;;;;;;;28.66;37.43;99391.94;4484903;32;33471;-80
2021/07/02 11:07:12;;;;;;;2.78;1.42;;;;;;;28.65;37.42;99398.53;4458471;32;34901;-78
2021/07/02 11:09:49;;;;;;;2.70;1.40;;;;;;;28.63;37.41;99390.56;4484916;32;33710;-78
2021/07/02 11:12:27;;;;;;;3.33;1.25;;;;;;;28.65;37.42;99388.38;4484898;32;33407;-76
2021/07/02 11:14:54;;;;;;;3.37;1.40;;;;;;;28.64;37.49;99375.75;4484788;32;35010;-77
2021/07/02 11:17:31;;;;;;;3.30;1.42;;;;;;;28.65;37.39;99390.28;4484940;32;34196;-73
2021/07/02 11:20:12;;;;;;;10.63;1.80;;;;;;;28.64;37.47;99385.91;4483646;32;34885;-76
2021/07/02 11:22:44;;;;;;;8.50;1.40;;;;;;;28.66;37.69;99375.47;4484855;32;34133;-76
2021/07/02 11:25:47;;;;;;;3.25;1.30;;;;;;;28.66;37.62;99369.97;4483478;32;34048;-75
2021/07/02 11:28:20;;;;;;;5.25;1.25;;;;;;;28.65;37.49;99373.81;4480714;31;34225;-76
2021/07/02 11:30:50;;;;;;;6.85;1.30;;;;;;;28.64;37.50;99370.25;4484786;32;33833;-76
2021/07/02 11:33:19;;;;;;;6.25;1.33;;;;;;;28.63;37.48;99371.34;4484799;32;34145;-77
2021/07/02 11:35:48;;;;;;;3.58;1.27;;;;;;;28.61;37.51;99378.19;4484579;32;34821;-77
2021/07/02 11:38:26;;;;;;;3.87;1.48;;;;;;;28.59;37.49;99378.47;4484673;32;34234;-77
2021/07/02 11:40:58;;;;;;;3.87;1.20;;;;;;;28.63;37.46;99373.25;4484597;32;33894;-75
2021/07/02 11:43:40;;;;;;;3.20;1.30;;;;;;;28.63;37.36;99368.59;4483373;32;31912;-76
2021/07/02 11:46:15;;;;;;;2.97;1.40;;;;;;;28.62;37.34;99361.44;4483109;32;33937;-75
2021/07/02 11:48:51;;;;;;;3.58;1.35;;;;;;;28.64;37.25;99364.75;4483441;32;34088;-70
2021/07/02 11:51:20;;;;;;;3.90;1.35;;;;;;;28.63;37.27;99365.84;4483378;32;35066;-77
2021/07/02 11:53:54;;;;;;;3.03;1.55;;;;;;;28.64;37.30;99358.44;4470899;32;32855;-75
2021/07/02 11:56:29;;;;;;;3.12;1.25;;;;;;;28.65;37.26;99358.16;4483497;32;34321;-77
2021/07/02 11:59:05;;;;;;;3.58;1.23;;;;;;;28.63;37.21;99360.37;4483514;32;33935;-76
2021/07/02 12:01:39;;;;;;;2.95;1.37;;;;;;;28.64;37.02;99352.97;4484625;32;33885;-77
2021/07/02 12:04:30;;;;;;;3.47;1.20;;;;;;;28.64;36.89;99358.44;4483477;32;33023;-76
2021/07/02 12:06:59;;;;;;;2.58;1.20;;;;;;;28.66;36.89;99375.47;4482060;31;34640;-73
2021/07/02 12:09:28;;;;;;;2.62;1.20;;;;;;;28.61;36.99;99362.53;4475099;32;34371;-78
2021/07/02 12:11:58;;;;;;;3.28;1.17;;;;;;;28.64;36.99;99361.19;4473108;32;33801;-77
2021/07/02 12:14:26;;;;;;;3.92;1.62;;;;;;;28.62;37.00;99358.69;4484433;32;34132;-77
2021/07/02 12:16:55;;;;;;;2.58;1.08;;;;;;;28.65;37.03;99354.59;4484331;32;33785;-78
2021/07/02 12:19:24;;;;;;;1.25;1.05;;;;;;;28.65;36.94;99355.41;4484300;32;34029;-78
2021/07/02 12:21:57;;;;;;;2.72;1.05;;;;;;;28.66;36.64;99345.25;4483185;32;33225;-70
2021/07/02 12:24:29;;;;;;;2.65;1.20;;;;;;;28.67;36.62;99355.13;4484465;32;32988;-76
2021/07/02 12:27:01;;;;;;;4.30;1.15;;;;;;;28.66;36.59;99348.81;4477898;32;35541;-78
2021/07/02 12:29:30;;;;;;;3.87;1.40;;;;;;;28.67;36.68;99339.47;4468625;32;33966;-78
2021/07/02 12:32:05;;;;;;;1.42;1.10;;;;;;;28.67;36.78;99334.00;4477629;32;33958;-79
2021/07/02 12:34:40;;;;;;;2.05;1.02;;;;;;;28.70;36.70;99335.38;4484377;32;32969;-79